Bill Jr — WCO6976 — position and weather

sailwx.info

Track history (hours):
 
Tides and Currents Weather Stations Pressure Air Temp Water Temp Dewpoint Dewpoint Depression Visibility Wind Speed Wind Dir Waves Ship Positions

Bill Jr

Owner: DAWSON VESSELS INC, MOBILE, AL. More information available from US FCC via Universal Licensing System and Coast Guard Vessel Documentation Center.

Last reported at 2015-Jun-30 16:30 UTC. Time now 2015-Jul-02 12:36 UTC.
Position N 29°56' W 090°08'.

Length 21 m.

MMSI: 366976750.

Date/timePositionNaut miles runAvg speedWind from/ knotsBaromVisibWave heightAir tempDewpointWater temp
2015-Jun-30 16:30N 29°56' W 090°08'4 4.1
2015-Jun-30 15:27N 29°57' W 090°04'3 3.5
2015-Jun-30 14:31N 29°56' W 089°60'4 4.1
2015-Jun-30 13:32N 29°55' W 090°04'4 4.0
2015-Jun-30 12:33N 29°56' W 090°08'0 0.2
2015-Jun-30 11:33N 29°56' W 090°09'  
2015-Jun-26 22:05N 29°57' W 090°08'5 0.3
2015-Jun-26 05:18N 29°58' W 090°14'0 0.2
2015-Jun-26 04:16N 29°58' W 090°14'0 0.0
2015-Jun-26 03:27N 29°58' W 090°14'1 0.7
2015-Jun-26 02:04N 29°57' W 090°13'7 0.4
2015-Jun-25 09:29N 29°55' W 090°06'2 2.1
2015-Jun-25 08:33N 29°55' W 090°04'0 0.0
2015-Jun-25 07:23N 29°55' W 090°04'0 0.0
2015-Jun-25 06:32N 29°55' W 090°04'4 3.4
2015-Jun-25 05:17N 29°56' W 090°08'  
2015-Jun-22 11:11N 29°56' W 090°21'  
Track history (hours):
 
Tides and Currents Weather Stations Pressure Air Temp Water Temp Dewpoint Dewpoint Depression Visibility Wind Speed Wind Dir Waves Ship Positions

Bill Jr

Owner: DAWSON VESSELS INC, MOBILE, AL. More information available from US FCC via Universal Licensing System and Coast Guard Vessel Documentation Center.

Last reported at 2015-Jun-30 16:30 UTC. Time now 2015-Jul-02 12:36 UTC.
Position N 29°56' W 090°08'.

Length 21 m.

MMSI: 366976750.

Date/timePositionNaut miles runAvg speedWind from/ knotsBaromVisibWave heightAir tempDewpointWater temp
2015-Jun-30 16:30N 29°56' W 090°08'4 4.1
2015-Jun-30 15:27N 29°57' W 090°04'3 3.5
2015-Jun-30 14:31N 29°56' W 089°60'4 4.1
2015-Jun-30 13:32N 29°55' W 090°04'4 4.0
2015-Jun-30 12:33N 29°56' W 090°08'0 0.2
2015-Jun-30 11:33N 29°56' W 090°09'  
2015-Jun-26 22:05N 29°57' W 090°08'5 0.3
2015-Jun-26 05:18N 29°58' W 090°14'0 0.2
2015-Jun-26 04:16N 29°58' W 090°14'0 0.0
2015-Jun-26 03:27N 29°58' W 090°14'1 0.7
2015-Jun-26 02:04N 29°57' W 090°13'7 0.4
2015-Jun-25 09:29N 29°55' W 090°06'2 2.1
2015-Jun-25 08:33N 29°55' W 090°04'0 0.0
2015-Jun-25 07:23N 29°55' W 090°04'0 0.0
2015-Jun-25 06:32N 29°55' W 090°04'4 3.4
2015-Jun-25 05:17N 29°56' W 090°08'  
2015-Jun-22 11:11N 29°56' W 090°21'  

Dump ship's entire track history